Time;durP1;ratioP1;P1;durP2;ratioP2;P2;SDS_P1;SDS_P2;PMS_P1;PMS_P2;Temp;Humidity;BMP_temperature;BMP_pressure;BME280_temperature;BME280_humidity;BME280_pressure;Samples;Min_cycle;Max_cycle;Signal;HPM_P1;HPM_P2
2023/09/23 00:01:22;;;;;;;1.93;1.30;;;22.10;97.90;;;;;;4981003;28;20533;-48
2023/09/23 00:03:49;;;;;;;2.10;1.33;;;22.10;97.90;;;;;;4985416;28;20495;-51
2023/09/23 00:06:16;;;;;;;2.50;1.00;;;22.10;98.00;;;;;;4985350;28;20455;-51
2023/09/23 00:08:44;;;;;;;1.60;1.17;;;22.10;98.00;;;;;;4985353;28;20463;-52
2023/09/23 00:11:11;;;;;;;1.20;0.90;;;22.10;98.00;;;;;;4982801;28;20463;-45
2023/09/23 00:13:38;;;;;;;2.00;1.10;;;22.10;98.00;;;;;;4983862;28;20830;-47
2023/09/23 00:16:07;;;;;;;2.03;1.47;;;22.10;98.00;;;;;;4984794;28;20463;-45
2023/09/23 00:18:36;;;;;;;1.77;1.00;;;22.10;98.20;;;;;;4987131;28;20459;-48
2023/09/23 00:21:05;;;;;;;4.97;1.30;;;22.10;98.50;;;;;;4986297;28;20455;-45
2023/09/23 00:23:32;;;;;;;1.40;1.30;;;22.10;98.10;;;;;;4986535;28;20471;-45
2023/09/23 00:26:00;;;;;;;2.50;1.40;;;22.10;98.10;;;;;;4981947;28;20459;-51
2023/09/23 00:28:30;;;;;;;2.70;1.77;;;22.10;98.10;;;;;;4985097;28;20460;-53
2023/09/23 00:31:05;;;;;;;1.30;1.20;;;22.10;98.10;;;;;;4982866;28;20460;-51
2023/09/23 00:33:32;;;;;;;1.90;1.60;;;22.10;98.10;;;;;;4985893;28;20549;-51
2023/09/23 00:36:00;;;;;;;1.97;1.30;;;22.10;98.10;;;;;;4987053;28;20463;-47
2023/09/23 00:38:27;;;;;;;1.27;1.00;;;22.10;98.10;;;;;;4988313;28;20463;-47
2023/09/23 00:40:55;;;;;;;1.13;1.00;;;22.10;98.10;;;;;;4984866;28;20463;-46
2023/09/23 00:43:23;;;;;;;1.40;1.20;;;22.10;98.10;;;;;;4983943;28;20979;-50
2023/09/23 00:45:51;;;;;;;1.87;1.23;;;22.10;98.10;;;;;;4983925;28;20460;-51
2023/09/23 00:48:20;;;;;;;1.70;1.20;;;22.10;98.10;;;;;;4988080;28;20521;-49
2023/09/23 00:50:48;;;;;;;1.23;1.13;;;22.10;98.10;;;;;;4987119;28;20469;-48
2023/09/23 00:53:16;;;;;;;1.67;1.10;;;22.10;98.10;;;;;;4987866;28;20542;-44
2023/09/23 00:55:52;;;;;;;2.17;1.00;;;22.10;98.10;;;;;;4984092;28;20464;-48
2023/09/23 00:58:20;;;;;;;3.60;1.13;;;22.10;98.10;;;;;;4987961;28;21438;-47
2023/09/23 01:00:48;;;;;;;1.27;0.80;;;22.10;98.10;;;;;;4982641;28;20462;-52
2023/09/23 01:03:16;;;;;;;1.63;1.20;;;22.10;98.10;;;;;;4986530;28;20471;-48
2023/09/23 01:05:44;;;;;;;2.33;1.23;;;22.10;98.10;;;;;;4986963;28;20464;-47
2023/09/23 01:08:25;;;;;;;1.17;0.80;;;22.10;98.10;;;;;;4987404;28;20463;-50
2023/09/23 01:10:53;;;;;;;1.30;0.90;;;22.10;98.10;;;;;;4983429;28;21079;-49
2023/09/23 01:13:23;;;;;;;1.40;1.07;;;22.10;98.10;;;;;;4988287;28;20522;-47
2023/09/23 01:15:51;;;;;;;1.40;1.00;;;22.10;98.10;;;;;;4978929;28;20463;-49
2023/09/23 01:18:18;;;;;;;1.43;1.20;;;22.10;98.10;;;;;;4986942;28;21418;-51
2023/09/23 01:20:49;;;;;;;1.37;1.27;;;22.10;98.10;;;;;;4986706;28;20824;-51
2023/09/23 01:23:17;;;;;;;1.40;1.20;;;22.10;98.10;;;;;;4988094;28;20462;-49
2023/09/23 01:25:44;;;;;;;1.20;1.10;;;22.10;98.10;;;;;;4986212;28;21030;-48
2023/09/23 01:28:12;;;;;;;1.10;0.97;;;22.10;98.10;;;;;;4986390;28;20531;-52
2023/09/23 01:30:40;;;;;;;2.30;1.00;;;22.10;98.10;;;;;;4982721;28;20455;-51
2023/09/23 01:33:08;;;;;;;1.10;0.93;;;22.10;98.10;;;;;;4985401;28;20469;-49
2023/09/23 01:35:36;;;;;;;1.50;1.20;;;22.10;98.10;;;;;;4986987;28;20549;-44
2023/09/23 01:38:03;;;;;;;1.83;1.10;;;22.10;98.10;;;;;;4986056;28;20978;-46
2023/09/23 01:40:32;;;;;;;1.17;0.90;;;22.10;98.10;;;;;;4985879;28;21200;-52
2023/09/23 01:42:59;;;;;;;1.53;1.10;;;22.10;98.10;;;;;;4986885;28;20501;-47
2023/09/23 01:45:26;;;;;;;1.27;1.17;;;22.00;98.10;;;;;;4984275;28;20459;-47
2023/09/23 01:47:56;;;;;;;1.20;1.07;;;22.10;98.10;;;;;;4984541;28;20797;-45
2023/09/23 01:50:23;;;;;;;1.30;1.00;;;22.10;98.10;;;;;;4987234;28;20951;-48
2023/09/23 01:52:50;;;;;;;1.50;1.40;;;22.10;98.10;;;;;;4985576;28;20467;-50
2023/09/23 01:55:18;;;;;;;1.10;0.90;;;22.00;98.40;;;;;;4987583;28;20963;-49
2023/09/23 01:57:48;;;;;;;1.23;1.00;;;22.00;98.10;;;;;;4988681;28;20462;-49
2023/09/23 02:00:22;;;;;;;1.77;1.03;;;22.00;98.10;;;;;;4988231;28;20514;-51
2023/09/23 02:02:49;;;;;;;1.90;1.07;;;22.00;98.10;;;;;;4987568;28;20606;-51
2023/09/23 02:05:18;;;;;;;2.70;1.10;;;22.10;98.10;;;;;;4989640;28;20803;-47
2023/09/23 02:07:47;;;;;;;1.20;1.00;;;22.00;98.10;;;;;;4989714;28;20477;-49
2023/09/23 02:10:15;;;;;;;1.23;0.97;;;22.10;98.10;;;;;;4989340;28;20467;-49
2023/09/23 02:12:42;;;;;;;1.20;1.10;;;22.10;98.10;;;;;;4989174;28;20529;-46
2023/09/23 02:18:35;;;;;;;1.30;1.17;;;22.10;98.10;;;;;;4974235;28;21302;-50
2023/09/23 02:21:01;;;;;;;1.50;1.20;;;22.10;98.20;;;;;;4982317;28;20472;-50
2023/09/23 02:23:28;;;;;;;1.10;0.93;;;22.00;98.10;;;;;;4982327;28;20483;-57
2023/09/23 02:25:55;;;;;;;1.27;1.03;;;22.00;98.10;;;;;;4982868;28;20470;-46
2023/09/23 02:28:21;;;;;;;1.20;1.10;;;22.10;98.20;;;;;;4980031;28;20547;-48
2023/09/23 02:30:48;;;;;;;1.40;1.30;;;22.00;98.10;;;;;;4979439;28;20470;-48
2023/09/23 02:33:15;;;;;;;1.13;1.03;;;22.10;98.20;;;;;;4982362;28;20466;-49
2023/09/23 02:35:43;;;;;;;1.20;0.90;;;22.00;98.10;;;;;;4978824;28;21061;-47
2023/09/23 02:38:10;;;;;;;1.60;1.10;;;22.00;98.10;;;;;;4980216;28;20459;-45
2023/09/23 02:40:40;;;;;;;1.20;0.90;;;22.10;98.20;;;;;;4980741;28;20586;-45
2023/09/23 02:43:07;;;;;;;1.20;1.10;;;22.00;98.10;;;;;;4982177;28;20843;-48
2023/09/23 02:45:34;;;;;;;1.10;0.90;;;22.00;98.10;;;;;;4981375;28;20872;-46
2023/09/23 02:48:01;;;;;;;1.20;1.10;;;22.00;98.10;;;;;;4987469;28;21081;-47
2023/09/23 02:50:27;;;;;;;1.43;1.30;;;22.00;98.10;;;;;;4988633;28;20570;-49
2023/09/23 02:52:55;;;;;;;1.30;1.00;;;22.10;98.20;;;;;;4988383;28;20908;-48
2023/09/23 02:55:22;;;;;;;1.30;1.20;;;22.00;98.10;;;;;;4991026;28;20469;-46
2023/09/23 02:57:52;;;;;;;1.30;0.90;;;22.00;98.20;;;;;;4987190;28;20902;-51
2023/09/23 03:00:22;;;;;;;1.23;1.10;;;22.00;98.10;;;;;;4977532;28;20459;-47
2023/09/23 03:02:54;;;;;;;1.43;1.20;;;22.00;98.20;;;;;;4982347;28;20479;-45
2023/09/23 03:05:26;;;;;;;1.57;1.20;;;22.00;98.20;;;;;;4984728;28;20463;-53
2023/09/23 03:07:52;;;;;;;1.40;1.27;;;22.00;98.10;;;;;;4981118;28;20923;-46
2023/09/23 03:10:31;;;;;;;1.30;1.10;;;22.00;98.10;;;;;;4973889;28;20647;-51
2023/09/23 03:13:03;;;;;;;1.40;1.00;;;22.00;98.10;;;;;;4979364;28;20480;-50
2023/09/23 03:15:34;;;;;;;1.40;0.87;;;22.00;98.10;;;;;;4976744;28;20825;-54
2023/09/23 03:18:00;;;;;;;1.40;1.20;;;22.00;98.20;;;;;;4982128;28;20591;-56
2023/09/23 03:20:27;;;;;;;1.50;1.40;;;22.00;98.20;;;;;;4979692;28;20600;-50
2023/09/23 03:22:54;;;;;;;1.20;0.90;;;22.00;98.10;;;;;;4978275;28;20475;-49
2023/09/23 03:25:22;;;;;;;1.30;1.10;;;22.00;98.20;;;;;;4980205;28;20459;-51
2023/09/23 03:27:51;;;;;;;1.73;1.43;;;22.00;98.20;;;;;;4980543;28;20451;-54
2023/09/23 03:30:19;;;;;;;1.60;1.17;;;22.00;98.20;;;;;;4978984;28;21212;-45
2023/09/23 03:32:46;;;;;;;1.20;1.00;;;22.00;98.20;;;;;;4977796;28;20950;-55
2023/09/23 03:35:17;;;;;;;1.30;0.93;;;22.00;98.10;;;;;;4978052;28;20482;-51
2023/09/23 03:37:47;;;;;;;1.20;1.10;;;22.00;98.10;;;;;;4981889;28;20461;-49
2023/09/23 03:40:15;;;;;;;1.50;1.27;;;22.00;98.20;;;;;;4980052;28;20466;-48
2023/09/23 03:42:43;;;;;;;1.40;1.30;;;22.00;98.10;;;;;;4979677;28;20474;-51
2023/09/23 03:45:11;;;;;;;1.40;1.30;;;22.00;98.20;;;;;;4979944;28;20463;-49
2023/09/23 03:47:38;;;;;;;1.30;1.03;;;22.00;98.20;;;;;;4973870;28;21184;-46
2023/09/23 03:50:07;;;;;;;1.20;0.90;;;22.00;98.10;;;;;;4978904;28;20470;-50
2023/09/23 03:52:35;;;;;;;1.20;1.10;;;22.00;98.20;;;;;;4977191;28;20573;-52
2023/09/23 03:55:03;;;;;;;2.13;1.47;;;22.00;98.20;;;;;;4982778;28;20474;-52
2023/09/23 03:57:30;;;;;;;1.50;1.30;;;22.00;98.20;;;;;;4981630;28;20582;-50
2023/09/23 03:59:58;;;;;;;1.37;1.20;;;22.00;98.20;;;;;;4977224;28;20827;-51
2023/09/23 04:02:25;;;;;;;1.30;1.10;;;22.00;98.20;;;;;;4979587;28;20491;-54
2023/09/23 04:04:53;;;;;;;1.13;1.03;;;22.00;98.20;;;;;;4985264;28;20974;-48
2023/09/23 04:07:20;;;;;;;1.77;0.90;;;22.00;98.20;;;;;;4988356;28;20466;-49
2023/09/23 04:09:48;;;;;;;1.60;1.20;;;22.00;98.20;;;;;;4986653;28;22082;-47
2023/09/23 04:12:15;;;;;;;1.40;1.20;;;22.00;98.20;;;;;;4979290;28;20598;-51
2023/09/23 04:14:42;;;;;;;1.03;0.90;;;22.00;98.20;;;;;;4978604;28;20478;-48
2023/09/23 04:17:11;;;;;;;1.83;1.73;;;22.00;98.50;;;;;;4980111;28;20549;-47
2023/09/23 04:19:37;;;;;;;1.50;1.20;;;22.00;98.20;;;;;;4984900;28;20570;-49
2023/09/23 04:22:04;;;;;;;1.50;1.40;;;22.00;98.20;;;;;;4988584;28;20463;-51
2023/09/23 04:24:31;;;;;;;2.60;1.30;;;22.00;98.20;;;;;;4989036;28;20542;-49
2023/09/23 04:26:59;;;;;;;1.30;1.20;;;22.00;98.20;;;;;;4986747;28;20990;-52
2023/09/23 04:29:28;;;;;;;1.43;1.13;;;22.00;98.20;;;;;;4984733;28;21200;-50
2023/09/23 04:31:56;;;;;;;1.43;1.23;;;22.00;98.20;;;;;;4983395;28;20549;-47
2023/09/23 04:34:25;;;;;;;2.67;1.13;;;22.00;98.20;;;;;;4987358;28;21340;-49
2023/09/23 04:36:52;;;;;;;2.03;1.00;;;21.90;98.10;;;;;;4987063;28;20463;-52
2023/09/23 04:39:19;;;;;;;1.30;1.10;;;22.00;98.20;;;;;;4986228;28;20467;-46
2023/09/23 04:41:46;;;;;;;1.20;1.10;;;22.00;98.20;;;;;;4987070;28;20749;-51
2023/09/23 04:44:12;;;;;;;1.40;1.23;;;21.90;98.10;;;;;;4981979;28;20482;-44
2023/09/23 04:46:39;;;;;;;1.30;1.20;;;22.00;98.20;;;;;;4986963;28;20461;-50
2023/09/23 04:49:06;;;;;;;1.40;1.03;;;21.90;98.20;;;;;;4983545;28;20474;-47
2023/09/23 04:51:34;;;;;;;1.27;1.03;;;21.90;98.10;;;;;;4988435;28;20468;-49
2023/09/23 04:54:01;;;;;;;1.40;1.10;;;21.90;98.10;;;;;;4988640;28;20962;-48
2023/09/23 04:56:27;;;;;;;1.40;1.30;;;22.00;98.20;;;;;;4989523;28;20466;-50
2023/09/23 04:58:58;;;;;;;1.33;1.17;;;21.90;98.20;;;;;;4985875;28;20990;-46
2023/09/23 05:01:25;;;;;;;1.60;1.33;;;21.90;98.20;;;;;;4986810;28;21924;-45
2023/09/23 05:03:52;;;;;;;1.30;0.90;;;22.00;98.20;;;;;;4987277;28;20791;-49
2023/09/23 05:06:18;;;;;;;1.60;1.50;;;21.90;98.20;;;;;;4988722;28;20535;-46
2023/09/23 05:08:47;;;;;;;1.60;1.20;;;22.00;98.20;;;;;;4985377;28;21065;-48
2023/09/23 05:11:13;;;;;;;1.50;1.20;;;22.00;98.20;;;;;;4987865;28;20460;-50
2023/09/23 05:13:40;;;;;;;1.37;1.27;;;21.90;98.20;;;;;;4986390;28;20975;-45
2023/09/23 05:16:07;;;;;;;1.33;1.00;;;21.90;98.20;;;;;;4985003;28;20474;-49
2023/09/23 05:18:34;;;;;;;1.77;1.63;;;21.90;98.20;;;;;;4984612;28;20669;-49
2023/09/23 05:21:00;;;;;;;1.70;1.07;;;21.90;98.20;;;;;;4983995;28;20475;-50
2023/09/23 05:23:28;;;;;;;1.30;1.10;;;21.90;98.20;;;;;;4987701;28;20489;-43
2023/09/23 05:25:57;;;;;;;1.50;1.40;;;21.90;98.20;;;;;;4986704;28;20590;-51
2023/09/23 05:28:27;;;;;;;1.63;1.10;;;21.90;98.20;;;;;;4981028;28;20470;-47
2023/09/23 05:30:54;;;;;;;1.30;1.20;;;21.90;98.20;;;;;;4985734;28;20517;-44
2023/09/23 05:33:20;;;;;;;1.10;1.00;;;21.90;98.20;;;;;;4988904;28;20466;-45
2023/09/23 05:35:47;;;;;;;1.30;0.97;;;21.90;98.20;;;;;;4989178;28;20474;-46
2023/09/23 05:38:14;;;;;;;1.50;1.23;;;21.90;98.20;;;;;;4988779;28;20501;-48
2023/09/23 05:40:41;;;;;;;1.10;1.00;;;21.90;98.20;;;;;;4991681;28;20473;-47
2023/09/23 05:43:11;;;;;;;1.37;1.10;;;21.90;98.20;;;;;;4989297;28;21072;-48
2023/09/23 05:45:37;;;;;;;1.13;1.00;;;22.00;98.30;;;;;;4988972;28;20487;-46
2023/09/23 05:48:05;;;;;;;1.10;0.90;;;21.90;98.20;;;;;;4985700;28;21939;-52
2023/09/23 05:50:31;;;;;;;1.30;1.00;;;21.90;98.20;;;;;;4990674;28;20815;-48
2023/09/23 05:52:58;;;;;;;1.17;0.90;;;21.90;98.20;;;;;;4990285;28;20459;-44
2023/09/23 05:55:25;;;;;;;1.53;1.17;;;21.90;98.20;;;;;;4990005;28;21068;-48
2023/09/23 05:57:53;;;;;;;1.60;1.10;;;21.90;98.20;;;;;;4987090;28;20466;-44
2023/09/23 06:00:22;;;;;;;1.30;1.00;;;21.90;98.20;;;;;;4987482;28;22167;-49
2023/09/23 06:02:48;;;;;;;1.10;0.80;;;21.90;98.20;;;;;;4989001;28;20471;-47
2023/09/23 06:05:15;;;;;;;1.53;1.27;;;21.90;98.30;;;;;;4988624;28;20487;-49
2023/09/23 06:07:42;;;;;;;1.47;1.10;;;21.90;98.30;;;;;;4987120;28;20464;-52
2023/09/23 06:10:10;;;;;;;1.10;1.00;;;21.90;98.30;;;;;;4988905;28;20463;-48
2023/09/23 06:12:37;;;;;;;1.77;1.10;;;21.90;98.30;;;;;;4989143;28;20805;-47
2023/09/23 06:15:06;;;;;;;1.13;0.97;;;21.90;98.30;;;;;;4988316;28;20455;-53
2023/09/23 06:17:34;;;;;;;1.40;1.00;;;21.90;98.30;;;;;;4988978;28;20459;-50
2023/09/23 06:20:01;;;;;;;1.27;1.10;;;21.90;98.30;;;;;;4988040;28;20475;-51
2023/09/23 06:22:28;;;;;;;1.13;1.00;;;21.90;98.30;;;;;;4989722;28;20603;-48
2023/09/23 06:24:55;;;;;;;1.20;1.10;;;21.90;98.30;;;;;;4983449;28;20483;-46
2023/09/23 06:27:21;;;;;;;1.30;1.20;;;21.90;98.30;;;;;;4985771;28;20962;-46
2023/09/23 06:29:48;;;;;;;1.73;1.30;;;21.90;98.30;;;;;;4990234;28;20476;-44
2023/09/23 06:32:15;;;;;;;1.13;0.90;;;21.90;98.30;;;;;;4988628;28;20462;-51
2023/09/23 06:34:43;;;;;;;1.40;0.90;;;21.90;98.30;;;;;;4987873;28;20968;-47
2023/09/23 06:37:10;;;;;;;1.67;1.40;;;21.90;98.30;;;;;;4986221;28;20459;-47
2023/09/23 06:39:36;;;;;;;1.70;1.30;;;21.90;98.30;;;;;;4990803;28;20501;-44
2023/09/23 06:42:03;;;;;;;1.30;1.10;;;21.90;98.30;;;;;;4988915;28;20475;-54
2023/09/23 06:44:30;;;;;;;1.57;1.30;;;21.90;98.30;;;;;;4987325;28;20478;-45
2023/09/23 06:46:56;;;;;;;1.93;1.00;;;21.90;98.30;;;;;;4987849;28;20466;-52
2023/09/23 06:49:23;;;;;;;1.73;1.37;;;21.90;98.30;;;;;;4987868;28;20471;-54
2023/09/23 06:51:51;;;;;;;1.20;1.07;;;21.90;98.30;;;;;;4990005;28;21127;-44
2023/09/23 06:54:18;;;;;;;1.30;1.20;;;21.90;98.30;;;;;;4988729;28;20470;-47
2023/09/23 06:56:45;;;;;;;1.10;1.00;;;21.90;98.30;;;;;;4988242;28;20469;-54
2023/09/23 06:59:11;;;;;;;1.10;0.90;;;21.90;98.30;;;;;;4987470;28;20471;-49
2023/09/23 07:01:38;;;;;;;1.30;1.10;;;21.80;98.30;;;;;;4985964;28;21176;-48
2023/09/23 07:04:05;;;;;;;1.60;1.10;;;21.80;98.20;;;;;;4988093;28;20463;-50
2023/09/23 07:06:32;;;;;;;1.20;1.10;;;21.90;98.30;;;;;;4987453;28;20498;-52
2023/09/23 07:09:00;;;;;;;1.40;1.30;;;21.80;98.30;;;;;;4988958;28;20960;-51
2023/09/23 07:11:27;;;;;;;1.10;0.90;;;21.80;98.30;;;;;;4987229;28;20470;-46
2023/09/23 07:13:55;;;;;;;1.20;1.10;;;21.80;98.30;;;;;;4984845;28;20474;-47
2023/09/23 07:16:22;;;;;;;1.23;1.00;;;21.90;98.30;;;;;;4985725;28;20460;-47
2023/09/23 07:18:49;;;;;;;1.20;1.10;;;21.80;98.30;;;;;;4988266;28;21067;-51
2023/09/23 07:21:15;;;;;;;1.00;0.90;;;21.80;98.30;;;;;;4989514;28;20506;-45
2023/09/23 07:23:42;;;;;;;1.13;1.00;;;21.90;98.30;;;;;;4987167;28;20816;-44
2023/09/23 07:26:10;;;;;;;1.20;0.97;;;21.80;98.30;;;;;;4989461;28;20930;-51
2023/09/23 07:28:37;;;;;;;1.77;1.13;;;21.80;98.30;;;;;;4988698;28;20459;-49
2023/09/23 07:31:04;;;;;;;2.13;1.93;;;21.80;98.30;;;;;;4989390;28;20831;-46
2023/09/23 07:33:30;;;;;;;1.47;1.20;;;21.80;98.40;;;;;;4985031;28;20936;-43
2023/09/23 07:35:57;;;;;;;1.33;1.10;;;21.80;98.30;;;;;;4983101;28;20458;-49
2023/09/23 07:38:24;;;;;;;1.30;1.10;;;21.80;98.30;;;;;;4985042;28;20467;-49
2023/09/23 07:40:50;;;;;;;2.17;1.00;;;21.80;98.30;;;;;;4984848;28;20463;-47
2023/09/23 07:43:18;;;;;;;1.63;1.00;;;21.80;98.30;;;;;;4987198;28;20963;-52
2023/09/23 07:45:45;;;;;;;1.70;1.13;;;21.80;98.30;;;;;;4987700;28;20986;-49
2023/09/23 07:48:12;;;;;;;1.10;0.90;;;21.80;98.30;;;;;;4987078;28;20459;-50
2023/09/23 07:50:39;;;;;;;1.33;1.23;;;21.80;98.40;;;;;;4984882;28;20462;-55
2023/09/23 07:53:06;;;;;;;1.30;1.10;;;21.80;98.40;;;;;;4988458;28;20472;-48
2023/09/23 07:55:32;;;;;;;2.30;1.20;;;21.80;98.40;;;;;;4985813;28;20511;-51
2023/09/23 07:57:59;;;;;;;1.53;1.10;;;21.80;98.40;;;;;;4979088;28;20666;-43
2023/09/23 08:00:27;;;;;;;1.57;1.33;;;21.80;98.40;;;;;;4985356;28;20486;-48
2023/09/23 08:02:54;;;;;;;2.80;1.40;;;21.80;98.40;;;;;;4983792;28;20626;-47
2023/09/23 08:05:23;;;;;;;1.93;1.33;;;21.80;98.40;;;;;;4986611;28;20479;-53
2023/09/23 08:07:50;;;;;;;1.43;1.20;;;21.80;98.40;;;;;;4988362;28;20754;-45
2023/09/23 08:10:17;;;;;;;3.67;1.90;;;21.80;98.30;;;;;;4989350;28;20461;-51
2023/09/23 08:12:44;;;;;;;3.20;1.20;;;21.80;98.30;;;;;;4987604;28;20502;-48
2023/09/23 08:15:12;;;;;;;1.53;1.13;;;21.80;98.30;;;;;;4986334;28;20959;-48
2023/09/23 08:17:40;;;;;;;1.30;1.10;;;21.80;98.20;;;;;;4983746;28;20580;-53
2023/09/23 08:20:17;;;;;;;1.67;1.47;;;21.80;98.20;;;;;;4988829;28;20512;-52
2023/09/23 08:22:44;;;;;;;2.57;1.40;;;21.70;98.10;;;;;;4986059;28;20600;-53
2023/09/23 08:25:12;;;;;;;1.60;1.50;;;21.70;98.10;;;;;;4986871;28;20472;-51
2023/09/23 08:27:38;;;;;;;1.73;1.60;;;21.70;98.00;;;;;;4980908;28;20470;-45
2023/09/23 08:30:07;;;;;;;3.10;1.20;;;21.80;98.10;;;;;;4987384;28;20459;-47
2023/09/23 08:32:33;;;;;;;6.40;1.70;;;21.70;98.00;;;;;;4984653;28;20475;-52
2023/09/23 08:35:02;;;;;;;2.70;1.90;;;21.80;98.10;;;;;;4989011;28;20505;-49
2023/09/23 08:37:29;;;;;;;3.40;1.63;;;21.80;98.00;;;;;;4986834;28;20463;-48
2023/09/23 08:39:55;;;;;;;4.37;1.77;;;21.70;97.90;;;;;;4984453;28;20991;-49
2023/09/23 08:42:24;;;;;;;1.83;1.67;;;21.70;98.00;;;;;;4989000;28;20463;-47
2023/09/23 08:44:51;;;;;;;2.47;1.73;;;21.70;97.90;;;;;;4988296;28;20943;-46
2023/09/23 08:47:19;;;;;;;1.90;1.63;;;21.70;97.90;;;;;;4977790;28;20459;-51
2023/09/23 08:49:47;;;;;;;2.63;1.43;;;21.80;97.80;;;;;;4985127;28;20462;-48
2023/09/23 08:52:17;;;;;;;6.20;1.73;;;21.70;97.70;;;;;;4985731;28;20498;-49
2023/09/23 08:54:45;;;;;;;3.07;1.53;;;21.70;97.70;;;;;;4982722;28;20913;-49
2023/09/23 08:57:11;;;;;;;4.70;1.63;;;21.70;97.70;;;;;;4986067;28;20805;-50
2023/09/23 08:59:37;;;;;;;3.10;1.70;;;21.70;97.70;;;;;;4982419;28;20470;-48
2023/09/23 09:02:05;;;;;;;6.50;1.50;;;21.70;97.60;;;;;;4982901;28;20208;-48
2023/09/23 09:04:32;;;;;;;5.03;2.17;;;21.70;97.60;;;;;;4981575;28;20542;-50
2023/09/23 09:06:58;;;;;;;8.30;2.00;;;21.70;97.90;;;;;;4982467;28;20455;-48
2023/09/23 09:09:27;;;;;;;2.90;1.87;;;21.70;97.50;;;;;;4992493;28;20457;-50
2023/09/23 09:11:55;;;;;;;2.40;1.23;;;21.70;97.50;;;;;;4985647;28;20466;-43
2023/09/23 09:14:23;;;;;;;1.83;1.53;;;21.70;97.50;;;;;;4991191;28;20463;-45
2023/09/23 09:16:50;;;;;;;2.63;1.50;;;21.70;97.40;;;;;;4990084;28;20484;-50
2023/09/23 09:19:18;;;;;;;2.30;1.60;;;21.70;97.40;;;;;;4991238;28;20466;-49
2023/09/23 09:21:45;;;;;;;3.30;1.70;;;21.70;97.40;;;;;;4989930;28;20498;-47
2023/09/23 09:24:12;;;;;;;1.90;1.70;;;21.70;97.40;;;;;;4986244;28;20466;-46
2023/09/23 09:26:40;;;;;;;2.47;1.90;;;21.70;97.40;;;;;;4991717;28;20490;-48
2023/09/23 09:29:07;;;;;;;1.87;1.60;;;21.70;97.30;;;;;;4991050;28;20467;-46
2023/09/23 09:31:36;;;;;;;2.47;1.70;;;21.70;97.40;;;;;;4986919;28;21221;-53
2023/09/23 09:34:08;;;;;;;1.70;1.60;;;21.70;97.30;;;;;;4992911;28;20504;-54
2023/09/23 09:36:37;;;;;;;3.00;2.00;;;21.70;97.30;;;;;;4990269;28;20469;-44
2023/09/23 09:39:08;;;;;;;4.03;1.73;;;21.70;97.30;;;;;;4989473;28;21143;-48
2023/09/23 09:41:45;;;;;;;2.10;1.80;;;21.70;97.30;;;;;;4986758;28;22048;-44
2023/09/23 09:44:14;;;;;;;2.70;1.77;;;21.70;97.30;;;;;;4991820;28;21014;-51
2023/09/23 09:46:42;;;;;;;2.30;1.60;;;21.70;97.30;;;;;;4987241;28;21020;-51
2023/09/23 09:49:10;;;;;;;3.53;1.70;;;21.70;97.20;;;;;;4992036;28;20566;-50
2023/09/23 09:51:37;;;;;;;5.50;1.90;;;21.70;97.30;;;;;;4987109;28;20464;-49
2023/09/23 09:54:05;;;;;;;1.83;1.70;;;21.70;97.30;;;;;;4985963;28;20471;-51
2023/09/23 09:56:33;;;;;;;2.73;1.40;;;21.70;97.30;;;;;;4986208;28;20533;-44
2023/09/23 09:59:03;;;;;;;2.27;1.70;;;21.70;97.20;;;;;;4985761;28;20474;-45
2023/09/23 10:01:30;;;;;;;5.60;1.87;;;21.70;97.20;;;;;;4986270;28;20959;-45
2023/09/23 10:03:58;;;;;;;3.93;2.00;;;21.70;97.30;;;;;;4989430;28;20858;-46
2023/09/23 10:06:26;;;;;;;3.83;2.30;;;21.70;97.40;;;;;;4989467;28;20975;-49
2023/09/23 10:08:53;;;;;;;2.20;1.50;;;21.70;97.50;;;;;;4989882;28;20473;-49
2023/09/23 10:11:34;;;;;;;2.07;1.40;;;21.70;97.30;;;;;;4991350;28;20503;-46
2023/09/23 10:14:16;;;;;;;6.20;1.57;;;21.70;97.40;;;;;;4985017;28;20462;-47
2023/09/23 10:16:49;;;;;;;3.30;1.40;;;21.70;97.30;;;;;;4987259;28;20498;-60
2023/09/23 10:19:17;;;;;;;4.63;1.80;;;21.70;97.40;;;;;;4991186;28;20506;-49
2023/09/23 10:21:47;;;;;;;7.80;1.70;;;21.70;97.50;;;;;;4985849;28;21878;-52
2023/09/23 10:24:20;;;;;;;1.40;1.20;;;21.70;97.50;;;;;;4985760;28;20467;-46
2023/09/23 10:26:47;;;;;;;7.03;1.70;;;21.80;97.40;;;;;;4980793;28;21101;-58
2023/09/23 10:29:15;;;;;;;9.00;2.03;;;21.70;97.20;;;;;;4987032;28;20946;-62
2023/09/23 10:31:42;;;;;;;3.73;1.47;;;21.70;96.40;;;;;;4985796;28;20468;-56
2023/09/23 10:34:10;;;;;;;4.50;1.70;;;21.70;96.30;;;;;;4989407;28;20557;-56
2023/09/23 10:36:37;;;;;;;3.77;2.07;;;21.70;96.40;;;;;;4989549;28;21019;-49
2023/09/23 10:39:06;;;;;;;1.83;1.50;;;21.70;96.30;;;;;;4990505;28;20881;-47
2023/09/23 10:41:34;;;;;;;2.43;1.60;;;21.70;96.30;;;;;;4984804;28;20464;-60
2023/09/23 10:44:02;;;;;;;2.20;1.53;;;21.70;96.20;;;;;;4988000;28;20466;-50
2023/09/23 10:46:30;;;;;;;3.17;1.60;;;21.70;96.30;;;;;;4985684;28;20491;-59
2023/09/23 10:48:59;;;;;;;2.60;1.50;;;21.70;96.20;;;;;;4982025;28;20535;-54
2023/09/23 10:51:27;;;;;;;5.67;1.63;;;21.80;96.00;;;;;;4986189;28;20584;-57
2023/09/23 10:53:55;;;;;;;3.13;1.67;;;21.80;95.90;;;;;;4987590;28;20459;-53
2023/09/23 10:56:24;;;;;;;2.23;1.70;;;21.80;95.90;;;;;;4988107;28;20479;-58
2023/09/23 10:58:52;;;;;;;3.67;1.90;;;21.80;95.80;;;;;;4986329;28;20560;-56
2023/09/23 11:01:20;;;;;;;2.60;1.77;;;21.80;95.70;;;;;;4991065;28;21984;-48
2023/09/23 11:03:48;;;;;;;2.80;1.60;;;21.80;95.60;;;;;;4986215;28;22117;-50
2023/09/23 11:06:16;;;;;;;2.50;1.50;;;21.80;95.50;;;;;;4987666;28;20479;-47
2023/09/23 11:08:43;;;;;;;4.40;1.83;;;21.90;95.50;;;;;;4991894;28;20783;-45
2023/09/23 11:11:10;;;;;;;2.27;1.50;;;21.90;95.50;;;;;;4989236;28;20467;-59
2023/09/23 11:13:37;;;;;;;3.57;1.67;;;21.90;95.40;;;;;;4989860;28;20466;-52
2023/09/23 11:16:09;;;;;;;3.43;1.50;;;21.90;95.40;;;;;;4984332;28;20463;-51
2023/09/23 11:18:37;;;;;;;2.73;1.50;;;21.90;95.40;;;;;;4987069;28;20527;-52
2023/09/23 11:21:05;;;;;;;2.00;1.47;;;22.00;95.40;;;;;;4987283;28;22236;-51
2023/09/23 11:23:32;;;;;;;3.53;1.50;;;22.00;95.30;;;;;;4987067;28;20483;-56
2023/09/23 11:25:59;;;;;;;1.90;1.10;;;22.00;95.10;;;;;;4985685;28;20995;-64
2023/09/23 11:28:27;;;;;;;3.93;2.03;;;22.00;95.10;;;;;;4986476;28;20851;-49
2023/09/23 11:30:55;;;;;;;3.47;1.73;;;22.00;95.00;;;;;;4982022;28;20458;-60
2023/09/23 11:33:22;;;;;;;2.13;1.50;;;22.00;95.00;;;;;;4981396;28;20478;-54
2023/09/23 11:35:49;;;;;;;3.50;1.50;;;22.10;95.10;;;;;;4979999;28;20468;-50
2023/09/23 11:38:18;;;;;;;1.97;1.37;;;22.10;95.00;;;;;;4985933;28;21006;-55
2023/09/23 11:40:45;;;;;;;1.47;1.37;;;22.10;94.90;;;;;;4985555;28;20766;-61
2023/09/23 11:43:12;;;;;;;3.93;1.10;;;22.10;94.90;;;;;;4987263;28;20451;-62
2023/09/23 11:45:39;;;;;;;2.13;1.57;;;22.10;94.90;;;;;;4988925;28;20494;-53
2023/09/23 11:48:08;;;;;;;2.90;1.50;;;22.10;94.80;;;;;;4987060;28;20990;-57
2023/09/23 11:50:35;;;;;;;2.50;1.00;;;22.20;94.90;;;;;;4989158;28;20460;-56
2023/09/23 11:53:02;;;;;;;2.60;1.17;;;22.20;94.80;;;;;;4985419;28;20565;-58
2023/09/23 11:55:32;;;;;;;3.00;1.47;;;22.20;94.80;;;;;;4984859;28;20951;-50
2023/09/23 11:57:59;;;;;;;2.70;1.20;;;22.30;94.80;;;;;;4985038;28;20503;-51
2023/09/23 12:00:26;;;;;;;2.37;1.30;;;22.20;94.70;;;;;;4986889;28;20942;-54
2023/09/23 12:02:53;;;;;;;4.20;2.20;;;22.20;94.60;;;;;;4986715;28;20471;-52
2023/09/23 12:05:20;;;;;;;4.10;1.53;;;22.20;94.60;;;;;;4986504;28;20471;-53
2023/09/23 12:07:47;;;;;;;1.60;1.50;;;22.30;94.70;;;;;;4986515;28;20546;-52
2023/09/23 12:10:14;;;;;;;2.03;1.10;;;22.20;94.70;;;;;;4989775;28;20451;-58
2023/09/23 12:12:43;;;;;;;2.13;1.40;;;22.30;94.60;;;;;;4985709;28;20495;-52
2023/09/23 12:15:10;;;;;;;2.03;1.43;;;22.30;94.60;;;;;;4985620;28;20594;-58
2023/09/23 12:17:37;;;;;;;1.70;1.10;;;22.30;94.60;;;;;;4986877;28;20486;-54
2023/09/23 12:20:07;;;;;;;3.57;1.43;;;22.30;94.60;;;;;;4985153;28;20967;-52
2023/09/23 12:22:34;;;;;;;2.20;1.50;;;22.30;94.50;;;;;;4980827;28;20459;-49
2023/09/23 12:25:00;;;;;;;3.07;1.30;;;22.30;94.50;;;;;;4985195;28;20459;-56
2023/09/23 12:27:27;;;;;;;1.73;1.30;;;22.30;94.40;;;;;;4985157;28;20494;-58
2023/09/23 12:29:56;;;;;;;1.63;1.23;;;22.30;94.40;;;;;;4983881;28;20474;-60
2023/09/23 12:32:23;;;;;;;1.70;1.10;;;22.30;94.30;;;;;;4981474;28;20463;-61
2023/09/23 12:34:50;;;;;;;3.23;1.50;;;22.30;94.30;;;;;;4984596;28;20558;-50
2023/09/23 12:37:16;;;;;;;1.60;1.10;;;22.30;94.20;;;;;;4985751;28;20467;-52
2023/09/23 12:39:43;;;;;;;1.87;1.37;;;22.40;94.40;;;;;;4982962;28;20990;-56
2023/09/23 12:42:11;;;;;;;1.97;1.33;;;22.40;94.10;;;;;;4983001;28;20462;-59
2023/09/23 12:44:37;;;;;;;1.47;1.10;;;22.40;94.20;;;;;;4989102;28;20978;-52
2023/09/23 12:47:06;;;;;;;3.13;1.40;;;22.40;94.10;;;;;;4984636;28;20481;-53
2023/09/23 12:49:32;;;;;;;3.47;1.73;;;22.40;93.90;;;;;;4985188;28;20471;-58
2023/09/23 12:51:59;;;;;;;2.93;1.83;;;22.40;94.00;;;;;;4979559;28;20470;-58
2023/09/23 12:54:26;;;;;;;2.63;2.00;;;22.40;93.60;;;;;;4980731;28;20754;-47